createdAt,value
2018-05-08T00:00:49.320Z,0
2018-05-08T00:01:49.906Z,0
2018-05-08T00:02:50.486Z,0
2018-05-08T00:03:51.061Z,0
2018-05-08T00:04:51.633Z,0
2018-05-08T00:05:52.211Z,0
2018-05-08T00:06:52.796Z,0
2018-05-08T00:07:53.367Z,0
2018-05-08T00:08:53.951Z,0
2018-05-08T00:09:54.522Z,0
2018-05-08T00:10:55.095Z,0
2018-05-08T00:11:55.681Z,0
2018-05-08T00:12:56.262Z,0
2018-05-08T00:13:56.838Z,0
2018-05-08T00:14:57.414Z,0
2018-05-08T00:15:57.988Z,0
2018-05-08T00:16:58.561Z,0
2018-05-08T00:17:59.132Z,0
2018-05-08T00:18:59.706Z,0
2018-05-08T00:20:00.283Z,0
2018-05-08T00:21:00.855Z,0
2018-05-08T00:22:01.428Z,0
2018-05-08T00:23:02.049Z,0
2018-05-08T00:24:02.572Z,0
2018-05-08T00:25:03.145Z,0
2018-05-08T00:26:03.730Z,0
2018-05-08T00:27:04.303Z,0
2018-05-08T00:28:04.877Z,0
2018-05-08T00:29:05.450Z,0
2018-05-08T00:30:06.023Z,0
2018-05-08T00:31:06.596Z,0
2018-05-08T00:32:07.168Z,0
2018-05-08T00:33:07.741Z,0
2018-05-08T00:34:08.313Z,0
2018-05-08T00:35:08.887Z,0
2018-05-08T00:36:09.459Z,0
2018-05-08T00:37:10.106Z,0
2018-05-08T00:38:10.605Z,0
2018-05-08T00:39:11.178Z,0
2018-05-08T00:40:11.751Z,0
2018-05-08T00:41:12.329Z,0
2018-05-08T00:42:12.911Z,0
2018-05-08T00:43:13.496Z,0
2018-05-08T00:44:14.071Z,0
2018-05-08T00:45:14.642Z,0
2018-05-08T00:46:15.215Z,0
2018-05-08T00:47:15.800Z,0
2018-05-08T00:48:16.373Z,0
2018-05-08T00:49:16.946Z,0
2018-05-08T00:50:17.517Z,0
2018-05-08T00:51:18.093Z,0
2018-05-08T00:52:18.664Z,0
2018-05-08T00:53:19.239Z,0
2018-05-08T00:54:19.812Z,0
2018-05-08T00:55:20.396Z,0
2018-05-08T00:56:20.969Z,0
2018-05-08T00:57:21.541Z,0
2018-05-08T00:58:22.116Z,0
2018-05-08T00:59:22.688Z,0
2018-05-08T01:00:23.261Z,0
2018-05-08T01:01:23.834Z,0
2018-05-08T01:02:24.407Z,0
2018-05-08T01:03:24.991Z,0
2018-05-08T01:04:25.565Z,0
2018-05-08T01:05:26.137Z,0
2018-05-08T01:06:26.709Z,0
2018-05-08T01:07:27.282Z,0
2018-05-08T01:08:27.853Z,0
2018-05-08T01:09:28.428Z,0
2018-05-08T01:10:29.000Z,0
2018-05-08T01:11:29.576Z,0
2018-05-08T01:12:30.145Z,0
2018-05-08T01:13:30.722Z,0
2018-05-08T01:14:31.290Z,0
2018-05-08T01:15:31.863Z,0
2018-05-08T01:16:32.447Z,0
2018-05-08T01:17:33.019Z,0
2018-05-08T01:18:33.592Z,0
2018-05-08T01:19:34.177Z,0
2018-05-08T01:20:34.750Z,0
2018-05-08T01:21:35.324Z,0
2018-05-08T01:22:35.896Z,0
2018-05-08T01:23:36.471Z,0
2018-05-08T01:24:37.043Z,0
2018-05-08T01:25:37.615Z,0
2018-05-08T01:26:38.188Z,0
2018-05-08T01:28:54.225Z,0
2018-05-08T01:29:54.799Z,0
2018-05-08T01:30:55.371Z,0
2018-05-08T01:31:55.955Z,0
2018-05-08T01:32:56.528Z,0
2018-05-08T01:33:57.102Z,0
2018-05-08T01:34:57.678Z,0
2018-05-08T01:35:58.248Z,0
2018-05-08T01:36:58.820Z,0
2018-05-08T01:37:59.392Z,0
2018-05-08T01:38:59.967Z,0
2018-05-08T01:40:00.541Z,0
2018-05-08T01:41:01.116Z,0
2018-05-08T01:42:01.690Z,0
2018-05-08T01:43:02.262Z,0
2018-05-08T01:44:02.836Z,0
2018-05-08T01:45:03.414Z,0
2018-05-08T01:46:03.983Z,0
2018-05-08T01:47:04.556Z,0
2018-05-08T01:48:05.131Z,0
2018-05-08T01:49:05.709Z,0
2018-05-08T01:50:06.280Z,0
2018-05-08T01:51:06.854Z,0
2018-05-08T01:52:07.430Z,0
2018-05-08T01:53:08.000Z,0
2018-05-08T01:54:08.571Z,0
2018-05-08T01:55:09.155Z,0
2018-05-08T01:56:09.717Z,0
2018-05-08T01:57:10.339Z,0
2018-05-08T01:58:10.862Z,0
2018-05-08T01:59:11.436Z,0
2018-05-08T02:00:12.013Z,0
2018-05-08T02:01:12.585Z,0
2018-05-08T02:02:13.159Z,0
2018-05-08T02:03:13.733Z,0
2018-05-08T02:04:14.307Z,0
2018-05-08T02:05:14.876Z,0
2018-05-08T02:06:15.449Z,0
2018-05-08T02:07:16.022Z,0
2018-05-08T02:08:16.596Z,0
2018-05-08T02:09:17.171Z,0
2018-05-08T02:10:17.744Z,0
2018-05-08T02:11:18.320Z,0
2018-05-08T02:12:18.892Z,0
2018-05-08T02:13:19.466Z,0
2018-05-08T02:14:20.051Z,0
2018-05-08T02:15:20.622Z,0
2018-05-08T02:16:21.196Z,0
2018-05-08T02:17:21.773Z,0
2018-05-08T02:18:22.354Z,0
2018-05-08T02:19:22.928Z,0
2018-05-08T02:20:23.583Z,0
2018-05-08T02:21:24.075Z,0
2018-05-08T02:22:24.647Z,0
2018-05-08T02:23:25.221Z,0
2018-05-08T02:24:25.792Z,0
2018-05-08T02:25:26.365Z,0
2018-05-08T02:26:26.937Z,0
2018-05-08T02:27:27.511Z,0
2018-05-08T02:28:28.084Z,0
2018-05-08T02:29:28.658Z,0
2018-05-08T02:30:29.233Z,0
2018-05-08T02:31:29.807Z,0
2018-05-08T02:32:30.380Z,0
2018-05-08T02:33:30.951Z,0
2018-05-08T02:34:31.538Z,0
2018-05-08T02:35:32.114Z,0
2018-05-08T02:36:32.694Z,0
2018-05-08T02:37:33.277Z,0
2018-05-08T02:38:33.853Z,0
2018-05-08T02:39:34.439Z,0
2018-05-08T02:40:35.020Z,0
2018-05-08T02:41:35.596Z,0
2018-05-08T02:42:36.180Z,0
2018-05-08T02:43:36.749Z,0
2018-05-08T02:44:37.322Z,0
2018-05-08T02:45:37.895Z,0
2018-05-08T02:46:38.469Z,0
2018-05-08T02:47:39.053Z,0
2018-05-08T02:48:39.625Z,0
2018-05-08T02:49:40.198Z,0
2018-05-08T02:50:40.772Z,0
2018-05-08T02:51:41.347Z,0
2018-05-08T02:52:41.929Z,0
2018-05-08T02:53:42.496Z,0
2018-05-08T02:54:43.079Z,0
2018-05-08T02:55:43.652Z,0
2018-05-08T02:56:44.228Z,0
2018-05-08T02:57:44.798Z,0
2018-05-08T02:58:45.372Z,0
2018-05-08T02:59:45.943Z,0
2018-05-08T03:00:46.515Z,0
2018-05-08T03:01:47.088Z,0
2018-05-08T03:02:47.663Z,0
2018-05-08T03:03:48.239Z,0
2018-05-08T03:04:48.809Z,0
2018-05-08T03:05:49.381Z,0
2018-05-08T03:06:49.956Z,0
2018-05-08T03:07:50.534Z,0
2018-05-08T03:08:51.108Z,0
2018-05-08T03:09:51.681Z,0
2018-05-08T03:10:52.251Z,0
2018-05-08T03:11:52.827Z,0
2018-05-08T03:12:53.400Z,0
2018-05-08T03:13:53.983Z,0
2018-05-08T03:14:54.565Z,0
2018-05-08T03:15:55.129Z,0
2018-05-08T03:16:55.707Z,0
2018-05-08T03:17:56.275Z,0
2018-05-08T03:18:56.847Z,0
2018-05-08T03:19:57.427Z,0
2018-05-08T03:20:58.004Z,0
2018-05-08T03:21:58.577Z,0
2018-05-08T03:22:59.159Z,0
2018-05-08T03:23:59.735Z,4
2018-05-08T03:25:00.307Z,0
2018-05-08T03:26:00.890Z,0
2018-05-08T03:27:01.465Z,0
2018-05-08T03:28:02.048Z,4
2018-05-08T03:29:02.619Z,0
2018-05-08T03:30:03.293Z,4
2018-05-08T03:31:03.760Z,4
2018-05-08T03:32:04.345Z,4
2018-05-08T03:33:04.917Z,4
2018-05-08T03:34:05.488Z,4
2018-05-08T03:35:06.060Z,4
2018-05-08T03:36:06.632Z,4
2018-05-08T03:37:07.203Z,4
2018-05-08T03:38:07.775Z,8
2018-05-08T03:39:08.347Z,8
2018-05-08T03:40:08.922Z,8
2018-05-08T03:41:09.495Z,8
2018-05-08T03:42:10.070Z,8
2018-05-08T03:43:10.655Z,8
2018-05-08T03:44:11.228Z,12
2018-05-08T03:45:11.804Z,12
2018-05-08T03:46:12.377Z,12
2018-05-08T03:47:12.950Z,16
2018-05-08T03:48:13.522Z,20
2018-05-08T03:49:14.096Z,16
2018-05-08T03:50:14.671Z,20
2018-05-08T03:51:15.244Z,24
2018-05-08T03:52:15.820Z,24
2018-05-08T03:53:16.394Z,28
2018-05-08T03:54:16.966Z,28
2018-05-08T03:55:17.540Z,28
2018-05-08T03:56:18.113Z,36
2018-05-08T03:57:18.728Z,36
2018-05-08T03:58:19.259Z,40
2018-05-08T03:59:19.833Z,40
2018-05-08T04:00:20.407Z,44
2018-05-08T04:01:20.993Z,44
2018-05-08T04:02:21.566Z,48
2018-05-08T04:03:22.139Z,52
2018-05-08T04:04:22.711Z,56
2018-05-08T04:05:23.286Z,60
2018-05-08T04:06:23.856Z,60
2018-05-08T04:07:24.431Z,64
2018-05-08T04:08:25.058Z,68
2018-05-08T04:09:25.614Z,72
2018-05-08T04:10:26.149Z,76
2018-05-08T04:11:26.720Z,76
2018-05-08T04:12:27.293Z,80
2018-05-08T04:13:27.877Z,84
2018-05-08T04:14:28.452Z,88
2018-05-08T04:15:29.082Z,92
2018-05-08T04:16:29.608Z,92
2018-05-08T04:17:30.195Z,100
2018-05-08T04:18:30.773Z,100
2018-05-08T04:19:31.346Z,104
2018-05-08T04:20:31.918Z,108
2018-05-08T04:21:32.493Z,112
2018-05-08T04:22:33.067Z,116
2018-05-08T04:23:33.643Z,116
2018-05-08T04:24:34.222Z,124
2018-05-08T04:25:34.793Z,124
2018-05-08T04:26:35.367Z,128
2018-05-08T04:27:35.943Z,128
2018-05-08T04:28:36.518Z,136
2018-05-08T04:29:37.091Z,140
2018-05-08T04:30:37.666Z,144
2018-05-08T04:31:38.241Z,148
2018-05-08T04:32:38.814Z,152
2018-05-08T04:33:39.390Z,156
2018-05-08T04:34:39.963Z,164
2018-05-08T04:35:40.545Z,164
2018-05-08T04:36:41.143Z,172
2018-05-08T04:37:41.702Z,176
2018-05-08T04:38:42.278Z,180
2018-05-08T04:39:42.853Z,184
2018-05-08T04:40:43.427Z,188
2018-05-08T04:41:44.009Z,192
2018-05-08T04:42:44.576Z,196
2018-05-08T04:43:45.149Z,200
2018-05-08T04:44:45.725Z,204
2018-05-08T04:45:46.299Z,208
2018-05-08T04:46:46.876Z,212
2018-05-08T04:47:47.450Z,220
2018-05-08T04:48:48.029Z,220
2018-05-08T04:49:48.611Z,228
2018-05-08T04:50:49.198Z,232
2018-05-08T04:51:49.773Z,236
2018-05-08T04:52:50.360Z,240
2018-05-08T04:53:50.936Z,248
2018-05-08T04:54:51.522Z,252
2018-05-08T04:55:52.152Z,256
2018-05-08T04:56:52.673Z,260
2018-05-08T04:57:53.250Z,264
2018-05-08T04:58:53.837Z,268
2018-05-08T04:59:54.414Z,272
2018-05-08T05:00:54.991Z,276
2018-05-08T05:01:55.568Z,280
2018-05-08T05:02:56.142Z,288
2018-05-08T05:03:56.719Z,288
2018-05-08T05:04:57.295Z,292
2018-05-08T05:05:57.871Z,296
2018-05-08T05:06:58.530Z,300
2018-05-08T05:07:59.023Z,304
2018-05-08T05:08:59.599Z,304
2018-05-08T05:10:00.174Z,308
2018-05-08T05:11:00.786Z,308
2018-05-08T05:12:01.330Z,312
2018-05-08T05:13:01.916Z,316
2018-05-08T05:14:02.491Z,320
2018-05-08T05:15:03.070Z,320
2018-05-08T05:16:03.646Z,324
2018-05-08T05:17:04.222Z,332
2018-05-08T05:18:04.800Z,332
2018-05-08T05:19:05.387Z,336
2018-05-08T05:20:05.968Z,340
2018-05-08T05:21:06.540Z,344
2018-05-08T05:22:07.116Z,348
2018-05-08T05:23:07.697Z,348
2018-05-08T05:24:08.271Z,352
2018-05-08T05:25:08.860Z,356
2018-05-08T05:26:09.447Z,360
2018-05-08T05:27:10.024Z,360
2018-05-08T05:28:10.601Z,368
2018-05-08T05:29:11.177Z,368
2018-05-08T05:30:11.754Z,368
2018-05-08T05:31:12.337Z,372
2018-05-08T05:32:12.910Z,376
2018-05-08T05:33:13.486Z,376
2018-05-08T05:34:14.073Z,380
2018-05-08T05:35:14.654Z,384
2018-05-08T05:36:15.225Z,388
2018-05-08T05:37:15.804Z,392
2018-05-08T05:38:16.380Z,396
2018-05-08T05:39:16.957Z,396
2018-05-08T05:40:17.546Z,396
2018-05-08T05:41:18.127Z,400
2018-05-08T05:42:18.699Z,408
2018-05-08T05:43:19.278Z,408
2018-05-08T05:44:19.854Z,412
2018-05-08T05:45:20.432Z,412
2018-05-08T05:46:21.015Z,416
2018-05-08T05:47:21.588Z,424
2018-05-08T05:48:22.166Z,424
2018-05-08T05:49:22.744Z,428
2018-05-08T05:50:23.321Z,432
2018-05-08T05:51:23.899Z,436
2018-05-08T05:52:24.476Z,436
2018-05-08T05:53:25.172Z,440
2018-05-08T05:54:25.628Z,444
2018-05-08T05:55:26.206Z,448
2018-05-08T05:56:26.787Z,452
2018-05-08T05:57:27.361Z,456
2018-05-08T05:58:27.938Z,460
2018-05-08T05:59:28.517Z,460
2018-05-08T06:00:29.096Z,460
2018-05-08T06:01:29.673Z,468
2018-05-08T06:02:30.251Z,468
2018-05-08T06:03:30.828Z,472
2018-05-08T06:04:31.407Z,472
2018-05-08T06:05:31.984Z,476
2018-05-08T06:06:32.562Z,480
2018-05-08T06:07:33.142Z,484
2018-05-08T06:08:33.718Z,480
2018-05-08T06:09:34.299Z,484
2018-05-08T06:10:34.873Z,488
2018-05-08T06:11:35.452Z,488
2018-05-08T06:12:36.032Z,488
2018-05-08T06:13:36.608Z,496
2018-05-08T06:14:37.199Z,496
2018-05-08T06:15:37.775Z,500
2018-05-08T06:16:38.355Z,500
2018-05-08T06:17:38.948Z,500
2018-05-08T06:18:39.524Z,504
2018-05-08T06:19:40.103Z,504
2018-05-08T06:20:40.684Z,508
2018-05-08T06:21:41.258Z,508
2018-05-08T06:22:41.838Z,508
2018-05-08T06:23:42.417Z,512
2018-05-08T06:24:43.006Z,516
2018-05-08T06:25:43.584Z,504
2018-05-08T06:26:44.161Z,508
2018-05-08T06:27:44.742Z,512
2018-05-08T06:28:45.322Z,508
2018-05-08T06:29:45.904Z,512
2018-05-08T06:30:46.477Z,516
2018-05-08T06:31:47.060Z,516
2018-05-08T06:32:47.637Z,516
2018-05-08T06:33:48.215Z,520
2018-05-08T06:34:48.793Z,520
2018-05-08T06:35:49.382Z,520
2018-05-08T06:36:49.961Z,524
2018-05-08T06:37:50.541Z,524
2018-05-08T06:38:51.119Z,524
2018-05-08T06:39:51.697Z,528
2018-05-08T06:40:52.280Z,528
2018-05-08T06:41:52.855Z,532
2018-05-08T06:42:53.436Z,536
2018-05-08T06:43:54.024Z,536
2018-05-08T06:44:54.602Z,536
2018-05-08T06:45:55.182Z,536
2018-05-08T06:46:55.760Z,536
2018-05-08T06:47:56.339Z,540
2018-05-08T06:48:56.923Z,540
2018-05-08T06:49:57.498Z,540
2018-05-08T06:50:58.077Z,544
2018-05-08T06:51:58.658Z,540
2018-05-08T06:52:59.236Z,540
2018-05-08T06:53:59.813Z,544
2018-05-08T06:55:00.408Z,544
2018-05-08T06:56:00.983Z,544
2018-05-08T06:57:01.562Z,548
2018-05-08T06:58:02.141Z,548
2018-05-08T06:59:02.723Z,548
2018-05-08T07:00:03.301Z,552
2018-05-08T07:01:03.877Z,552
2018-05-08T07:02:04.457Z,552
2018-05-08T07:03:05.038Z,556
2018-05-08T07:04:05.617Z,552
2018-05-08T07:05:06.197Z,556
2018-05-08T07:06:06.777Z,556
2018-05-08T07:07:07.355Z,556
2018-05-08T07:08:07.934Z,560
2018-05-08T07:09:08.579Z,560
2018-05-08T07:10:09.093Z,564
2018-05-08T07:11:09.673Z,564
2018-05-08T07:12:10.253Z,564
2018-05-08T07:13:10.838Z,564
2018-05-08T07:14:11.414Z,568
2018-05-08T07:15:11.993Z,568
2018-05-08T07:16:12.760Z,572
2018-05-08T07:17:13.165Z,572
2018-05-08T07:18:13.733Z,572
2018-05-08T07:19:14.313Z,572
2018-05-08T07:20:14.896Z,576
2018-05-08T07:21:15.484Z,576
2018-05-08T07:22:16.075Z,580
2018-05-08T07:23:16.655Z,580
2018-05-08T07:24:17.234Z,580
2018-05-08T07:25:17.826Z,584
2018-05-08T07:26:18.404Z,580
2018-05-08T07:27:18.986Z,584
2018-05-08T07:28:19.565Z,584
2018-05-08T07:29:20.166Z,584
2018-05-08T07:30:20.747Z,588
2018-05-08T07:31:21.326Z,588
2018-05-08T07:32:21.906Z,588
2018-05-08T07:33:22.485Z,592
2018-05-08T07:34:23.065Z,592
2018-05-08T07:35:23.657Z,596
2018-05-08T07:36:24.237Z,592
2018-05-08T07:37:24.826Z,596
2018-05-08T07:38:25.406Z,600
2018-05-08T07:39:25.987Z,596
2018-05-08T07:40:26.569Z,600
2018-05-08T07:41:27.164Z,600
2018-05-08T07:42:27.745Z,604
2018-05-08T07:43:28.325Z,604
2018-05-08T07:44:28.904Z,600
2018-05-08T07:45:29.523Z,604
2018-05-08T07:46:30.075Z,608
2018-05-08T07:47:30.664Z,604
2018-05-08T07:48:31.260Z,612
2018-05-08T07:49:31.835Z,608
2018-05-08T07:50:32.416Z,608
2018-05-08T07:51:32.998Z,612
2018-05-08T07:52:33.578Z,612
2018-05-08T07:53:34.162Z,616
2018-05-08T07:54:34.740Z,616
2018-05-08T07:55:35.322Z,616
2018-05-08T07:56:35.904Z,616
2018-05-08T07:57:36.548Z,616
2018-05-08T07:58:37.064Z,620
2018-05-08T07:59:37.656Z,620
2018-05-08T08:00:38.236Z,620
2018-05-08T08:01:38.817Z,620
2018-05-08T08:02:39.400Z,624
2018-05-08T08:03:39.982Z,624
2018-05-08T08:04:40.561Z,628
2018-05-08T08:05:41.144Z,624
2018-05-08T08:06:41.735Z,624
2018-05-08T08:07:42.309Z,628
2018-05-08T08:08:42.889Z,632
2018-05-08T08:09:43.473Z,632
2018-05-08T08:10:44.055Z,632
2018-05-08T08:11:44.634Z,636
2018-05-08T08:12:45.215Z,636
2018-05-08T08:13:45.798Z,636
2018-05-08T08:14:46.379Z,640
2018-05-08T08:15:46.959Z,640
2018-05-08T08:16:47.543Z,640
2018-05-08T08:17:48.123Z,644
2018-05-08T08:18:48.704Z,644
2018-05-08T08:19:49.285Z,648
2018-05-08T08:20:49.866Z,644
2018-05-08T08:21:50.456Z,648
2018-05-08T08:22:51.078Z,640
2018-05-08T08:23:51.726Z,648
2018-05-08T08:24:52.205Z,652
2018-05-08T08:25:52.794Z,652
2018-05-08T08:26:53.374Z,656
2018-05-08T08:27:53.957Z,652
2018-05-08T08:28:54.536Z,656
2018-05-08T08:29:55.130Z,656
2018-05-08T08:30:55.711Z,660
2018-05-08T08:31:56.293Z,660
2018-05-08T08:32:56.877Z,664
2018-05-08T08:33:57.460Z,664
2018-05-08T08:34:58.040Z,664
2018-05-08T08:35:58.621Z,668
2018-05-08T08:36:59.204Z,668
2018-05-08T08:37:59.786Z,668
2018-05-08T08:39:00.373Z,672
2018-05-08T08:40:00.953Z,672
2018-05-08T08:41:01.548Z,676
2018-05-08T08:42:02.126Z,672
2018-05-08T08:43:02.707Z,676
2018-05-08T08:44:03.351Z,676
2018-05-08T08:45:03.886Z,680
2018-05-08T08:46:04.480Z,680
2018-05-08T08:47:05.057Z,680
2018-05-08T08:48:05.650Z,680
2018-05-08T08:49:06.248Z,684
2018-05-08T08:50:06.826Z,688
2018-05-08T08:51:07.407Z,688
2018-05-08T08:52:07.994Z,688
2018-05-08T08:53:08.573Z,692
2018-05-08T08:54:09.156Z,688
2018-05-08T08:55:09.738Z,692
2018-05-08T08:56:10.375Z,692
2018-05-08T08:57:10.914Z,696
2018-05-08T08:58:11.499Z,696
2018-05-08T08:59:12.080Z,696
2018-05-08T09:00:12.662Z,696
2018-05-08T09:01:13.246Z,700
2018-05-08T09:02:13.827Z,700
2018-05-08T09:03:14.411Z,700
2018-05-08T09:04:14.989Z,696
2018-05-08T09:05:15.572Z,700
2018-05-08T09:06:16.164Z,704
2018-05-08T09:07:16.755Z,700
2018-05-08T09:08:17.329Z,704
2018-05-08T09:09:17.913Z,704
2018-05-08T09:10:18.506Z,704
2018-05-08T09:11:19.100Z,704
2018-05-08T09:12:19.669Z,704
2018-05-08T09:13:20.256Z,704
2018-05-08T09:14:20.848Z,704
2018-05-08T09:15:21.440Z,704
2018-05-08T09:16:22.023Z,708
2018-05-08T09:17:22.606Z,708
2018-05-08T09:18:23.187Z,704
2018-05-08T09:19:23.769Z,700
2018-05-08T09:20:24.354Z,708
2018-05-08T09:21:24.936Z,704
2018-05-08T09:22:25.517Z,708
2018-05-08T09:23:26.103Z,704
2018-05-08T09:24:26.682Z,704
2018-05-08T09:25:27.271Z,708
2018-05-08T09:26:27.857Z,708
2018-05-08T09:27:28.518Z,708
2018-05-08T09:28:29.020Z,708
2018-05-08T09:29:29.603Z,700
2018-05-08T09:30:30.184Z,708
2018-05-08T09:31:30.769Z,708
2018-05-08T09:32:31.350Z,712
2018-05-08T09:33:31.932Z,712
2018-05-08T09:34:32.514Z,712
2018-05-08T09:35:33.109Z,712
2018-05-08T09:36:33.690Z,708
2018-05-08T09:37:34.284Z,708
2018-05-08T09:38:34.867Z,712
2018-05-08T09:39:35.462Z,712
2018-05-08T09:40:36.044Z,712
2018-05-08T09:41:36.628Z,712
2018-05-08T09:42:37.212Z,716
2018-05-08T09:43:37.791Z,712
2018-05-08T09:44:38.374Z,716
2018-05-08T09:45:38.958Z,716
2018-05-08T09:46:39.543Z,716
2018-05-08T09:47:40.123Z,716
2018-05-08T09:48:40.711Z,712
2018-05-08T09:49:41.302Z,716
2018-05-08T09:50:41.887Z,716
2018-05-08T09:51:42.466Z,716
2018-05-08T09:52:43.050Z,716
2018-05-08T09:53:43.646Z,716
2018-05-08T09:54:44.227Z,720
2018-05-08T09:55:44.810Z,720
2018-05-08T09:56:45.395Z,708
2018-05-08T09:57:45.979Z,716
2018-05-08T09:58:46.572Z,724
2018-05-08T09:59:47.157Z,720
2018-05-08T10:00:47.737Z,716
2018-05-08T10:01:48.322Z,720
2018-05-08T10:02:48.916Z,720
2018-05-08T10:03:49.512Z,724
2018-05-08T10:04:50.096Z,724
2018-05-08T10:05:50.687Z,724
2018-05-08T10:06:51.268Z,720
2018-05-08T10:07:51.856Z,724
2018-05-08T10:08:52.437Z,720
2018-05-08T10:09:53.019Z,716
2018-05-08T10:10:53.603Z,720
2018-05-08T10:11:54.187Z,720
2018-05-08T10:12:54.769Z,720
2018-05-08T10:13:55.353Z,724
2018-05-08T10:14:55.935Z,728
2018-05-08T10:15:56.530Z,728
2018-05-08T10:16:57.123Z,728
2018-05-08T10:17:57.706Z,732
2018-05-08T10:18:58.288Z,732
2018-05-08T10:19:58.873Z,732
2018-05-08T10:20:59.454Z,732
2018-05-08T10:22:00.039Z,736
2018-05-08T10:23:00.621Z,732
2018-05-08T10:24:01.216Z,736
2018-05-08T10:25:01.798Z,732
2018-05-08T10:26:02.383Z,732
2018-05-08T10:27:02.966Z,736
2018-05-08T10:28:03.555Z,736
2018-05-08T10:29:04.145Z,736
2018-05-08T10:30:04.728Z,736
2018-05-08T10:31:05.312Z,736
2018-05-08T10:32:05.896Z,732
2018-05-08T10:33:06.523Z,736
2018-05-08T10:34:07.068Z,740
2018-05-08T10:35:07.663Z,740
2018-05-08T10:36:08.246Z,736
2018-05-08T10:37:08.835Z,740
2018-05-08T10:38:09.413Z,736
2018-05-08T10:39:09.996Z,740
2018-05-08T10:40:10.580Z,740
2018-05-08T10:41:11.165Z,740
2018-05-08T10:42:11.748Z,740
2018-05-08T10:43:12.330Z,744
2018-05-08T10:44:12.916Z,748
2018-05-08T10:45:13.501Z,744
2018-05-08T10:46:14.080Z,740
2018-05-08T10:47:14.662Z,744
2018-05-08T10:48:15.247Z,748
2018-05-08T10:49:15.831Z,744
2018-05-08T10:50:16.413Z,744
2018-05-08T10:51:16.997Z,744
2018-05-08T10:52:17.583Z,744
2018-05-08T10:53:18.166Z,748
2018-05-08T10:54:18.751Z,744
2018-05-08T10:55:19.334Z,748
2018-05-08T10:56:19.930Z,744
2018-05-08T10:57:20.525Z,744
2018-05-08T10:58:21.109Z,748
2018-05-08T10:59:21.693Z,748
2018-05-08T11:00:22.281Z,748
2018-05-08T11:01:22.861Z,752
2018-05-08T11:02:23.467Z,756
2018-05-08T11:03:24.029Z,748
2018-05-08T11:04:24.622Z,748
2018-05-08T11:05:25.218Z,752
2018-05-08T11:06:25.815Z,748
2018-05-08T11:07:26.395Z,748
2018-05-08T11:08:26.978Z,752
2018-05-08T11:09:27.564Z,752
2018-05-08T11:10:28.147Z,756
2018-05-08T11:11:28.730Z,756
2018-05-08T11:12:29.374Z,756
2018-05-08T11:13:29.913Z,760
2018-05-08T11:14:30.504Z,760
2018-05-08T11:15:31.091Z,760
2018-05-08T11:16:31.675Z,760
2018-05-08T11:17:32.272Z,760
2018-05-08T11:18:32.857Z,764
2018-05-08T11:19:33.437Z,760
2018-05-08T11:20:34.021Z,760
2018-05-08T11:21:34.615Z,764
2018-05-08T11:22:35.199Z,768
2018-05-08T11:23:35.790Z,768
2018-05-08T11:24:36.367Z,764
2018-05-08T11:25:36.951Z,768
2018-05-08T11:26:37.645Z,772
2018-05-08T11:27:38.132Z,772
2018-05-08T11:28:38.723Z,776
2018-05-08T11:29:39.307Z,772
2018-05-08T11:30:39.891Z,772
2018-05-08T11:31:40.474Z,772
2018-05-08T11:32:41.091Z,776
2018-05-08T11:33:41.643Z,780
2018-05-08T11:34:42.227Z,776
2018-05-08T11:35:42.810Z,776
2018-05-08T11:36:43.393Z,776
2018-05-08T11:37:43.978Z,780
2018-05-08T11:38:44.560Z,784
2018-05-08T11:39:45.145Z,784
2018-05-08T11:40:45.732Z,788
2018-05-08T11:41:46.325Z,784
2018-05-08T11:42:46.908Z,784
2018-05-08T11:43:47.494Z,784
2018-05-08T11:44:48.099Z,788
2018-05-08T11:45:48.688Z,792
2018-05-08T11:46:49.268Z,788
2018-05-08T11:47:49.851Z,784
2018-05-08T11:48:50.437Z,788
2018-05-08T11:49:51.021Z,792
2018-05-08T11:50:51.607Z,792
2018-05-08T11:51:52.195Z,792
2018-05-08T11:52:52.773Z,792
2018-05-08T11:53:53.359Z,796
2018-05-08T11:54:53.945Z,800
2018-05-08T11:55:54.525Z,804
2018-05-08T11:56:55.110Z,804
2018-05-08T11:57:55.693Z,808
2018-05-08T11:58:56.280Z,808
2018-05-08T11:59:56.874Z,808
2018-05-08T12:00:57.473Z,808
2018-05-08T12:01:58.047Z,812
2018-05-08T12:02:58.631Z,812
2018-05-08T12:03:59.216Z,812
2018-05-08T12:04:59.800Z,812
2018-05-08T12:06:00.386Z,816
2018-05-08T12:07:00.967Z,820
2018-05-08T12:08:01.553Z,816
2018-05-08T12:09:02.136Z,824
2018-05-08T12:10:02.722Z,820
2018-05-08T12:11:03.304Z,820
2018-05-08T12:12:03.900Z,824
2018-05-08T12:13:04.489Z,824
2018-05-08T12:14:05.073Z,828
2018-05-08T12:15:05.667Z,832
2018-05-08T12:16:06.250Z,828
2018-05-08T12:17:06.834Z,832
2018-05-08T12:18:07.422Z,836
2018-05-08T12:19:08.002Z,836
2018-05-08T12:20:08.587Z,840
2018-05-08T12:21:09.171Z,844
2018-05-08T12:22:09.756Z,840
2018-05-08T12:23:10.356Z,844
2018-05-08T12:24:10.935Z,844
2018-05-08T12:25:11.524Z,844
2018-05-08T12:26:12.115Z,844
2018-05-08T12:27:12.700Z,852
2018-05-08T12:28:13.283Z,848
2018-05-08T12:29:13.871Z,852
2018-05-08T12:30:14.454Z,856
2018-05-08T12:31:15.044Z,856
2018-05-08T12:32:15.622Z,860
2018-05-08T12:33:16.208Z,868
2018-05-08T12:34:16.794Z,868
2018-05-08T12:35:17.379Z,872
2018-05-08T12:36:18.060Z,872
2018-05-08T12:37:18.552Z,872
2018-05-08T12:38:19.137Z,876
2018-05-08T12:39:19.722Z,876
2018-05-08T12:40:20.489Z,880
2018-05-08T12:41:20.894Z,880
2018-05-08T12:42:21.476Z,880
2018-05-08T12:43:22.061Z,884
2018-05-08T12:44:22.650Z,884
2018-05-08T12:45:23.243Z,888
2018-05-08T12:46:23.826Z,892
2018-05-08T12:47:24.411Z,892
2018-05-08T12:48:24.995Z,888
2018-05-08T12:49:25.585Z,896
2018-05-08T12:50:26.203Z,904
2018-05-08T12:51:26.757Z,904
2018-05-08T12:52:27.340Z,908
2018-05-08T12:53:27.934Z,908
2018-05-08T12:54:28.523Z,908
2018-05-08T12:55:29.108Z,916
2018-05-08T12:56:29.691Z,916
2018-05-08T12:57:30.277Z,912
2018-05-08T12:58:30.860Z,916
2018-05-08T12:59:31.444Z,924
2018-05-08T13:00:32.028Z,928
2018-05-08T13:01:32.623Z,932
2018-05-08T13:02:33.226Z,932
2018-05-08T13:03:33.812Z,936
2018-05-08T13:04:34.397Z,936
2018-05-08T13:05:34.981Z,940
2018-05-08T13:06:35.564Z,944
2018-05-08T13:07:36.151Z,944
2018-05-08T13:08:36.735Z,948
2018-05-08T13:09:37.331Z,952
2018-05-08T13:10:37.927Z,948
2018-05-08T13:11:38.514Z,952
2018-05-08T13:12:39.099Z,956
2018-05-08T13:13:39.683Z,960
2018-05-08T13:14:40.268Z,984
2018-05-08T13:15:40.852Z,964
2018-05-08T13:16:41.437Z,968
2018-05-08T13:17:42.021Z,972
2018-05-08T13:18:42.604Z,972
2018-05-08T13:19:43.192Z,976
2018-05-08T13:20:43.773Z,980
2018-05-08T13:21:44.359Z,980
2018-05-08T13:22:44.944Z,984
2018-05-08T13:23:45.616Z,988
2018-05-08T13:24:46.121Z,996
2018-05-08T13:25:46.705Z,996
2018-05-08T13:26:47.324Z,996
2018-05-08T13:27:47.886Z,1000
2018-05-08T13:28:48.478Z,1000
2018-05-08T13:29:49.067Z,1004
2018-05-08T13:30:49.665Z,1008
2018-05-08T13:31:50.251Z,1012
2018-05-08T13:32:50.835Z,1016
2018-05-08T13:33:51.420Z,1020
2018-05-08T13:34:52.004Z,1024
2018-05-08T13:35:52.593Z,1028
2018-05-08T13:36:53.188Z,1028
2018-05-08T13:37:53.771Z,1032
2018-05-08T13:38:54.361Z,1032
2018-05-08T13:39:54.948Z,1036
2018-05-08T13:40:55.529Z,1040
2018-05-08T13:41:56.136Z,1040
2018-05-08T13:42:56.703Z,1044
2018-05-08T13:43:57.301Z,1048
2018-05-08T13:44:57.895Z,1056
2018-05-08T13:45:58.480Z,1056
2018-05-08T13:46:59.065Z,1060
2018-05-08T13:47:59.670Z,1064
2018-05-08T13:49:00.247Z,1064
2018-05-08T13:50:00.846Z,1068
2018-05-08T13:51:01.428Z,1072
2018-05-08T13:52:02.020Z,1072
2018-05-08T13:53:02.600Z,1080
2018-05-08T13:54:03.184Z,1080
2018-05-08T13:55:03.795Z,1084
2018-05-08T13:56:04.365Z,1088
2018-05-08T13:57:04.961Z,1092
2018-05-08T13:58:05.546Z,1096
2018-05-08T13:59:06.142Z,1100
2018-05-08T14:00:06.727Z,1104
2018-05-08T14:01:07.314Z,1104
2018-05-08T14:02:07.910Z,1104
2018-05-08T14:03:08.496Z,1108
2018-05-08T14:04:09.081Z,1116
2018-05-08T14:05:09.667Z,1120
2018-05-08T14:06:10.253Z,1124
2018-05-08T14:07:10.837Z,1128
2018-05-08T14:08:11.421Z,1136
2018-05-08T14:09:12.008Z,1140
2018-05-08T14:10:12.594Z,1144